createdAt,value
2018-07-21T00:02:21.543Z,18.60
2018-07-21T00:04:50.284Z,18.60
2018-07-21T00:07:19.048Z,18.60
2018-07-21T00:09:47.447Z,18.50
2018-07-21T00:12:16.207Z,18.50
2018-07-21T00:14:44.815Z,18.50
2018-07-21T00:17:13.811Z,18.50
2018-07-21T00:19:42.466Z,18.50
2018-07-21T00:22:10.754Z,18.50
2018-07-21T00:24:39.350Z,18.40
2018-07-21T00:27:07.847Z,18.30
2018-07-21T00:29:36.451Z,18.40
2018-07-21T00:32:04.731Z,18.40
2018-07-21T00:34:33.036Z,18.40
2018-07-21T00:37:01.672Z,18.40
2018-07-21T00:39:30.794Z,18.30
2018-07-21T00:41:59.353Z,18.30
2018-07-21T00:44:27.972Z,18.40
2018-07-21T00:46:56.417Z,18.40
2018-07-21T00:49:25.161Z,18.40
2018-07-21T00:51:54.167Z,18.40
2018-07-21T00:54:22.443Z,18.30
2018-07-21T00:56:51.011Z,18.30
2018-07-21T00:59:19.576Z,18.40
2018-07-21T01:01:48.144Z,18.30
2018-07-21T01:04:16.666Z,18.30
2018-07-21T01:06:45.303Z,18.40
2018-07-21T01:09:14.001Z,18.30
2018-07-21T01:11:42.598Z,18.40
2018-07-21T01:14:11.526Z,18.30
2018-07-21T01:16:40.076Z,18.30
2018-07-21T01:19:08.868Z,18.30
2018-07-21T01:21:37.435Z,18.30
2018-07-21T01:24:05.838Z,18.30
2018-07-21T01:26:34.139Z,18.40
2018-07-21T01:29:02.732Z,18.30
2018-07-21T01:31:31.377Z,18.30
2018-07-21T01:34:00.057Z,18.30
2018-07-21T01:36:28.335Z,18.30
2018-07-21T01:38:56.623Z,18.30
2018-07-21T01:41:25.235Z,18.30
2018-07-21T01:43:53.525Z,18.20
2018-07-21T01:46:22.155Z,18.20
2018-07-21T01:48:51.063Z,18.10
2018-07-21T01:51:19.374Z,18.20
2018-07-21T01:53:48.004Z,18.10
2018-07-21T01:56:16.349Z,18.10
2018-07-21T01:58:45.243Z,18.10
2018-07-21T02:01:13.795Z,18.10
2018-07-21T02:03:45.613Z,18.00
2018-07-21T02:06:14.164Z,18.00
2018-07-21T02:08:43.102Z,18.00
2018-07-21T02:11:11.401Z,17.90
2018-07-21T02:13:40.235Z,18.00
2018-07-21T02:16:08.555Z,17.90
2018-07-21T02:18:37.330Z,17.90
2018-07-21T02:21:06.144Z,17.90
2018-07-21T02:23:35.012Z,17.90
2018-07-21T02:28:32.079Z,17.90
2018-07-21T02:31:00.571Z,17.90
2018-07-21T02:33:29.199Z,17.90
2018-07-21T02:35:57.588Z,17.90
2018-07-21T02:38:25.888Z,17.90
2018-07-21T02:40:54.352Z,17.80
2018-07-21T02:43:22.643Z,17.90
2018-07-21T02:45:51.240Z,17.80
2018-07-21T02:48:19.549Z,17.80
2018-07-21T02:50:48.409Z,17.80
2018-07-21T02:53:16.951Z,17.80
2018-07-21T02:55:45.240Z,17.80
2018-07-21T02:58:14.130Z,17.80
2018-07-21T03:00:42.482Z,17.80
2018-07-21T03:03:10.892Z,17.80
2018-07-21T03:05:39.716Z,17.80
2018-07-21T03:08:08.706Z,17.80
2018-07-21T03:10:37.341Z,17.80
2018-07-21T03:13:05.973Z,17.80
2018-07-21T03:15:34.409Z,17.80
2018-07-21T03:18:03.240Z,17.80
2018-07-21T03:20:31.516Z,17.80
2018-07-21T03:22:59.898Z,17.80
2018-07-21T03:25:28.623Z,17.90
2018-07-21T03:27:57.272Z,17.90
2018-07-21T03:30:25.558Z,17.90
2018-07-21T03:35:22.200Z,17.90
2018-07-21T03:37:50.567Z,17.90
2018-07-21T03:40:19.136Z,17.90
2018-07-21T03:42:47.751Z,17.90
2018-07-21T03:45:16.424Z,17.90
2018-07-21T03:47:45.192Z,17.90
2018-07-21T03:50:13.489Z,17.90
2018-07-21T03:52:42.099Z,17.90
2018-07-21T03:55:10.486Z,17.80
2018-07-21T03:57:38.935Z,17.90
2018-07-21T04:02:35.567Z,17.90
2018-07-21T04:05:04.108Z,17.90
2018-07-21T04:07:32.814Z,17.90
2018-07-21T04:10:01.530Z,17.90
2018-07-21T04:12:29.863Z,17.90
2018-07-21T04:14:58.152Z,17.90
2018-07-21T04:17:27.549Z,17.90
2018-07-21T04:19:57.036Z,17.90
2018-07-21T04:22:26.453Z,17.90
2018-07-21T04:24:55.644Z,17.90
2018-07-21T04:27:24.199Z,17.90
2018-07-21T04:29:53.111Z,17.90
2018-07-21T04:32:21.425Z,17.90
2018-07-21T04:34:49.969Z,17.90
2018-07-21T04:37:18.252Z,17.90
2018-07-21T04:39:46.585Z,17.90
2018-07-21T04:42:15.173Z,18.00
2018-07-21T04:44:43.489Z,18.00
2018-07-21T04:47:12.260Z,17.90
2018-07-21T04:49:41.139Z,17.80
2018-07-21T04:52:10.012Z,17.60
2018-07-21T04:54:38.936Z,17.40
2018-07-21T04:59:35.572Z,17.30
2018-07-21T05:02:03.894Z,17.30
2018-07-21T05:04:32.191Z,17.30
2018-07-21T05:07:01.077Z,17.30
2018-07-21T05:09:29.458Z,17.30
2018-07-21T05:11:59.056Z,17.30
2018-07-21T05:14:27.352Z,17.30
2018-07-21T05:16:56.090Z,17.30
2018-07-21T05:19:24.663Z,17.30
2018-07-21T05:21:53.159Z,17.30
2018-07-21T05:24:21.772Z,17.30
2018-07-21T05:26:50.428Z,17.30
2018-07-21T05:29:19.079Z,17.30
2018-07-21T05:31:47.891Z,17.30
2018-07-21T05:34:16.501Z,17.30
2018-07-21T05:36:45.187Z,17.30
2018-07-21T05:39:14.288Z,17.30
2018-07-21T05:41:42.874Z,17.30
2018-07-21T05:44:11.203Z,17.30
2018-07-21T05:46:39.516Z,17.30
2018-07-21T05:49:08.068Z,17.30
2018-07-21T05:51:36.638Z,17.40
2018-07-21T05:54:05.061Z,17.40
2018-07-21T05:56:33.537Z,17.40
2018-07-21T05:59:02.067Z,17.50
2018-07-21T06:01:30.544Z,17.50
2018-07-21T06:03:59.489Z,17.50
2018-07-21T06:06:27.972Z,17.60
2018-07-21T06:08:56.508Z,17.60
2018-07-21T06:11:24.795Z,17.60
2018-07-21T06:13:53.424Z,17.60
2018-07-21T06:16:22.065Z,17.60
2018-07-21T06:21:19.724Z,17.50
2018-07-21T06:23:48.231Z,17.40
2018-07-21T06:26:16.686Z,17.40
2018-07-21T06:28:45.131Z,17.40
2018-07-21T06:31:14.015Z,17.40
2018-07-21T06:33:42.570Z,17.40
2018-07-21T06:36:11.010Z,17.40
2018-07-21T06:38:39.568Z,17.30
2018-07-21T06:41:08.373Z,17.30
2018-07-21T06:43:37.277Z,17.30
2018-07-21T06:46:06.595Z,17.30
2018-07-21T06:48:35.271Z,17.30
2018-07-21T06:51:03.560Z,17.30
2018-07-21T06:53:32.196Z,17.30
2018-07-21T06:56:00.807Z,17.20
2018-07-21T06:58:29.396Z,17.20
2018-07-21T07:00:58.148Z,17.20
2018-07-21T07:03:26.602Z,17.20
2018-07-21T07:05:55.295Z,17.20
2018-07-21T07:08:23.583Z,17.20
2018-07-21T07:10:52.195Z,17.20
2018-07-21T07:13:20.755Z,17.20
2018-07-21T07:15:49.160Z,17.20
2018-07-21T07:18:17.936Z,17.20
2018-07-21T07:20:46.208Z,17.10
2018-07-21T07:23:14.750Z,17.10
2018-07-21T07:25:43.647Z,17.10
2018-07-21T07:28:12.027Z,17.00
2018-07-21T07:30:40.656Z,16.90
2018-07-21T07:33:09.583Z,16.90
2018-07-21T07:35:38.044Z,16.90
2018-07-21T07:38:06.926Z,16.90
2018-07-21T07:40:35.846Z,16.80
2018-07-21T07:43:04.279Z,16.90
2018-07-21T07:45:32.627Z,16.90
2018-07-21T07:48:00.922Z,16.80
2018-07-21T07:50:29.336Z,16.90
2018-07-21T07:52:58.092Z,16.90
2018-07-21T07:55:30.811Z,16.90
2018-07-21T07:58:00.183Z,16.90
2018-07-21T08:00:29.074Z,16.90
2018-07-21T08:03:00.395Z,16.90
2018-07-21T08:05:28.854Z,16.80
2018-07-21T08:07:57.561Z,16.80
2018-07-21T08:10:26.343Z,16.90
2018-07-21T08:12:54.788Z,16.90
2018-07-21T08:15:23.404Z,16.90
2018-07-21T08:17:51.703Z,16.90
2018-07-21T08:20:20.009Z,16.90
2018-07-21T08:22:48.288Z,16.90
2018-07-21T08:25:16.585Z,16.90
2018-07-21T08:27:45.383Z,16.90
2018-07-21T08:30:14.295Z,17.00
2018-07-21T08:32:42.607Z,17.10
2018-07-21T08:35:10.892Z,17.20
2018-07-21T08:37:39.512Z,17.30
2018-07-21T08:40:08.584Z,17.30
2018-07-21T08:42:36.893Z,17.30
2018-07-21T08:45:05.693Z,17.40
2018-07-21T08:47:34.163Z,17.50
2018-07-21T08:50:02.479Z,17.60
2018-07-21T08:52:30.798Z,17.60
2018-07-21T08:57:29.202Z,17.80
2018-07-21T09:04:54.193Z,17.80
2018-07-21T09:07:22.811Z,17.60
2018-07-21T09:09:51.364Z,17.50
2018-07-21T09:12:19.788Z,17.50
2018-07-21T09:14:48.080Z,17.60
2018-07-21T09:17:19.262Z,17.60
2018-07-21T09:19:48.678Z,17.70
2018-07-21T09:22:17.245Z,17.80
2018-07-21T09:24:45.868Z,18.00
2018-07-21T09:27:14.496Z,18.00
2018-07-21T09:29:42.990Z,18.00
2018-07-21T09:32:12.124Z,18.00
2018-07-21T09:37:09.187Z,17.80
2018-07-21T09:39:37.535Z,17.80
2018-07-21T09:42:05.963Z,17.80
2018-07-21T09:44:34.515Z,17.90
2018-07-21T09:47:03.583Z,17.80
2018-07-21T09:49:33.023Z,17.80
2018-07-21T09:52:01.929Z,17.80
2018-07-21T09:54:30.392Z,17.80
2018-07-21T09:56:58.949Z,17.80
2018-07-21T09:59:27.366Z,17.70
2018-07-21T10:01:55.664Z,17.70
2018-07-21T10:04:24.219Z,17.90
2018-07-21T10:06:52.516Z,17.90
2018-07-21T10:09:20.812Z,17.90
2018-07-21T10:11:49.412Z,17.80
2018-07-21T10:14:18.293Z,17.90
2018-07-21T10:16:46.589Z,17.90
2018-07-21T10:19:14.932Z,17.90
2018-07-21T10:21:43.658Z,17.80
2018-07-21T10:24:18.099Z,17.90
2018-07-21T10:26:53.428Z,17.90
2018-07-21T10:29:21.760Z,17.80
2018-07-21T10:31:50.813Z,17.70
2018-07-21T10:34:19.967Z,17.70
2018-07-21T10:36:48.948Z,17.60
2018-07-21T10:39:17.632Z,17.50
2018-07-21T10:41:46.203Z,17.50
2018-07-21T10:44:16.759Z,17.60
2018-07-21T10:46:45.230Z,17.70
2018-07-21T10:49:13.703Z,17.70
2018-07-21T10:51:42.257Z,17.70
2018-07-21T10:54:10.837Z,17.60
2018-07-21T10:56:39.644Z,17.50
2018-07-21T10:59:07.944Z,17.60
2018-07-21T11:04:04.611Z,17.70
2018-07-21T11:06:33.535Z,17.80
2018-07-21T11:09:02.351Z,17.90
2018-07-21T11:11:31.356Z,17.90
2018-07-21T11:13:59.708Z,18.00
2018-07-21T11:16:28.420Z,18.20
2018-07-21T11:18:56.701Z,18.30
2018-07-21T11:21:25.832Z,18.50
2018-07-21T11:23:54.551Z,18.60
2018-07-21T11:26:23.048Z,18.70
2018-07-21T11:28:51.644Z,18.80
2018-07-21T11:31:20.076Z,18.90
2018-07-21T11:33:48.447Z,19.10
2018-07-21T11:36:17.308Z,19.10
2018-07-21T11:38:45.988Z,19.00
2018-07-21T11:41:14.291Z,19.20
2018-07-21T11:43:42.582Z,19.10
2018-07-21T11:46:10.939Z,19.10
2018-07-21T11:48:39.888Z,19.10
2018-07-21T11:51:08.168Z,19.10
2018-07-21T11:53:36.556Z,19.30
2018-07-21T11:56:04.940Z,19.30
2018-07-21T11:58:33.310Z,19.30
2018-07-21T12:01:02.259Z,19.50
2018-07-21T12:03:30.739Z,19.70
2018-07-21T12:05:59.516Z,19.60
2018-07-21T12:08:28.014Z,19.70
2018-07-21T12:10:56.899Z,20.00
2018-07-21T12:13:25.305Z,19.90
2018-07-21T12:15:54.472Z,19.90
2018-07-21T12:18:22.948Z,20.00
2018-07-21T12:20:51.499Z,20.20
2018-07-21T12:23:20.067Z,20.20
2018-07-21T12:25:48.636Z,20.20
2018-07-21T12:28:17.102Z,19.90
2018-07-21T12:30:45.420Z,19.70
2018-07-21T12:33:13.708Z,19.70
2018-07-21T12:35:41.989Z,19.90
2018-07-21T12:38:10.493Z,20.00
2018-07-21T12:40:38.947Z,20.10
2018-07-21T12:43:07.244Z,20.20
2018-07-21T12:45:35.611Z,20.40
2018-07-21T12:48:04.132Z,20.40
2018-07-21T12:50:32.701Z,20.60
2018-07-21T12:53:01.353Z,20.80
2018-07-21T12:55:29.676Z,21.10
2018-07-21T12:57:58.521Z,21.00
2018-07-21T13:00:26.984Z,21.10
2018-07-21T13:02:55.309Z,21.20
2018-07-21T13:05:23.651Z,21.20
2018-07-21T13:07:52.680Z,21.30
2018-07-21T13:10:21.059Z,21.60
2018-07-21T13:12:49.380Z,21.70
2018-07-21T13:15:18.031Z,21.90
2018-07-21T13:17:46.329Z,22.10
2018-07-21T13:20:15.037Z,21.90
2018-07-21T13:22:43.443Z,21.70
2018-07-21T13:25:12.156Z,21.60
2018-07-21T13:27:41.304Z,21.70
2018-07-21T13:32:38.648Z,21.80
2018-07-21T13:35:07.419Z,21.80
2018-07-21T13:37:36.335Z,21.80
2018-07-21T13:40:06.067Z,21.80
2018-07-21T13:45:02.504Z,21.70
2018-07-21T13:49:59.396Z,21.60
2018-07-21T13:52:27.848Z,21.50
2018-07-21T13:57:24.433Z,21.60
2018-07-21T13:59:52.975Z,21.60
2018-07-21T14:02:21.333Z,21.50
2018-07-21T14:04:49.779Z,21.50
2018-07-21T14:09:46.416Z,21.60
2018-07-21T14:12:14.700Z,21.80
2018-07-21T14:14:43.278Z,21.60
2018-07-21T14:17:11.967Z,21.30
2018-07-21T14:19:40.935Z,21.40
2018-07-21T14:22:09.555Z,21.30
2018-07-21T14:24:38.096Z,21.10
2018-07-21T14:27:06.384Z,21.00
2018-07-21T14:29:34.771Z,21.10
2018-07-21T14:32:03.202Z,21.10
2018-07-21T14:34:31.583Z,21.20
2018-07-21T14:37:00.203Z,21.40
2018-07-21T14:39:28.739Z,21.80
2018-07-21T14:41:57.213Z,21.90
2018-07-21T14:44:25.500Z,22.10
2018-07-21T14:46:53.908Z,22.20
2018-07-21T14:49:22.320Z,22.30
2018-07-21T14:51:50.793Z,22.20
2018-07-21T14:54:19.113Z,22.20
2018-07-21T14:56:47.399Z,22.20
2018-07-21T14:59:15.974Z,22.40
2018-07-21T15:01:44.575Z,22.50
2018-07-21T15:04:12.932Z,22.40
2018-07-21T15:06:41.232Z,22.30
2018-07-21T15:11:39.267Z,22.20
2018-07-21T15:14:08.084Z,22.40
2018-07-21T15:16:36.781Z,22.70
2018-07-21T15:19:05.278Z,22.50
2018-07-21T15:21:33.572Z,22.30
2018-07-21T15:24:02.208Z,22.20
2018-07-21T15:26:30.661Z,22.00
2018-07-21T15:28:59.556Z,22.00
2018-07-21T15:31:27.919Z,22.00
2018-07-21T15:33:56.764Z,22.00
2018-07-21T15:36:25.656Z,22.10
2018-07-21T15:38:54.537Z,22.00
2018-07-21T15:41:22.950Z,21.80
2018-07-21T15:43:51.695Z,21.50
2018-07-21T15:46:20.005Z,21.30
2018-07-21T15:48:48.487Z,21.30
2018-07-21T15:51:17.074Z,21.20
2018-07-21T15:53:45.640Z,21.20
2018-07-21T15:56:13.936Z,21.10
2018-07-21T15:58:42.228Z,21.00
2018-07-21T16:01:10.793Z,21.00
2018-07-21T16:03:39.175Z,21.00
2018-07-21T16:06:07.650Z,20.90
2018-07-21T16:08:36.185Z,20.90
2018-07-21T16:11:04.675Z,20.80
2018-07-21T16:13:33.295Z,20.70
2018-07-21T16:16:01.590Z,20.60
2018-07-21T16:18:29.888Z,20.60
2018-07-21T16:20:58.468Z,20.50
2018-07-21T16:23:26.934Z,20.60
2018-07-21T16:25:55.243Z,20.70
2018-07-21T16:28:23.535Z,20.80
2018-07-21T16:30:51.835Z,21.00
2018-07-21T16:33:20.138Z,20.90
2018-07-21T16:35:49.235Z,20.90
2018-07-21T16:38:17.884Z,20.90
2018-07-21T16:40:46.400Z,20.90
2018-07-21T16:43:14.838Z,20.90
2018-07-21T16:45:43.501Z,20.80
2018-07-21T16:48:12.439Z,20.70
2018-07-21T16:50:40.840Z,20.70
2018-07-21T16:53:09.520Z,20.60
2018-07-21T16:55:38.478Z,20.60
2018-07-21T16:58:06.936Z,20.70
2018-07-21T17:00:35.641Z,20.70
2018-07-21T17:03:04.441Z,20.80
2018-07-21T17:05:33.159Z,20.90
2018-07-21T17:08:01.546Z,21.10
2018-07-21T17:10:30.468Z,21.20
2018-07-21T17:12:58.957Z,21.20
2018-07-21T17:15:27.540Z,21.20
2018-07-21T17:17:55.912Z,21.20
2018-07-21T17:20:24.299Z,21.20
2018-07-21T17:22:52.604Z,21.10
2018-07-21T17:25:20.938Z,21.00
2018-07-21T17:27:49.479Z,20.90
2018-07-21T17:30:17.795Z,20.80
2018-07-21T17:32:46.483Z,20.80
2018-07-21T17:35:14.763Z,20.70
2018-07-21T17:37:43.057Z,20.60
2018-07-21T17:40:11.829Z,20.50
2018-07-21T17:42:40.157Z,20.40
2018-07-21T17:45:08.588Z,20.30
2018-07-21T17:47:36.942Z,20.20
2018-07-21T17:50:05.529Z,20.10
2018-07-21T17:52:34.161Z,20.10
2018-07-21T17:55:02.749Z,20.00
2018-07-21T17:57:31.127Z,19.80
2018-07-21T17:59:59.520Z,19.50
2018-07-21T18:02:27.950Z,19.30
2018-07-21T18:07:25.724Z,18.90
2018-07-21T18:09:54.359Z,18.80
2018-07-21T18:12:22.712Z,18.80
2018-07-21T18:14:51.172Z,18.70
2018-07-21T18:19:48.024Z,18.50
2018-07-21T18:22:16.820Z,18.40
2018-07-21T18:24:46.579Z,18.30
2018-07-21T18:27:15.125Z,18.30
2018-07-21T18:29:43.459Z,18.20
2018-07-21T18:32:11.771Z,18.20
2018-07-21T18:34:40.098Z,18.20
2018-07-21T18:37:08.660Z,18.10
2018-07-21T18:39:36.966Z,18.10
2018-07-21T18:42:05.916Z,18.00
2018-07-21T18:44:34.461Z,18.00
2018-07-21T18:47:03.313Z,18.00
2018-07-21T18:49:31.621Z,17.90
2018-07-21T18:52:00.245Z,18.00
2018-07-21T18:54:28.739Z,18.00
2018-07-21T18:56:57.374Z,18.00
2018-07-21T18:59:25.749Z,18.00
2018-07-21T19:01:54.202Z,17.90
2018-07-21T19:04:23.005Z,17.90
2018-07-21T19:06:51.496Z,17.90
2018-07-21T19:09:20.152Z,17.90
2018-07-21T19:11:54.059Z,17.90
2018-07-21T19:14:22.957Z,17.80
2018-07-21T19:16:51.305Z,17.80
2018-07-21T19:19:19.620Z,17.80
2018-07-21T19:21:47.920Z,17.80
2018-07-21T19:24:16.338Z,17.70
2018-07-21T19:27:47.432Z,17.70
2018-07-21T19:30:16.276Z,17.60
2018-07-21T19:32:49.855Z,17.50
2018-07-21T19:35:18.172Z,17.40
2018-07-21T19:37:49.216Z,17.40
2018-07-21T19:40:18.891Z,17.30
2018-07-21T19:42:47.335Z,17.30
2018-07-21T19:45:16.367Z,17.30
2018-07-21T19:47:44.707Z,17.20
2018-07-21T19:50:13.185Z,17.10
2018-07-21T19:52:41.832Z,17.10
2018-07-21T19:55:11.001Z,17.10
2018-07-21T19:57:39.569Z,17.10
2018-07-21T20:00:08.563Z,17.00
2018-07-21T20:02:37.571Z,17.00
2018-07-21T20:05:06.160Z,17.00
2018-07-21T20:07:35.324Z,17.00
2018-07-21T20:10:04.460Z,17.00
2018-07-21T20:12:32.770Z,17.00
2018-07-21T20:15:01.310Z,17.00
2018-07-21T20:17:29.941Z,17.00
2018-07-21T20:19:58.777Z,17.00
2018-07-21T20:22:27.356Z,17.00
2018-07-21T20:24:56.141Z,17.00
2018-07-21T20:27:25.314Z,16.90
2018-07-21T20:29:54.057Z,16.90
2018-07-21T20:32:22.348Z,17.00
2018-07-21T20:34:51.164Z,17.00
2018-07-21T20:37:19.929Z,17.00
2018-07-21T20:39:48.504Z,17.00
2018-07-21T20:42:17.140Z,17.00
2018-07-21T20:44:45.784Z,17.00
2018-07-21T20:49:43.045Z,17.00
2018-07-21T20:52:12.209Z,17.00
2018-07-21T20:54:41.064Z,17.00
2018-07-21T20:57:09.851Z,16.90
2018-07-21T20:59:39.012Z,17.00
2018-07-21T21:02:07.405Z,16.90
2018-07-21T21:04:36.493Z,16.90
2018-07-21T21:07:05.049Z,16.90
2018-07-21T21:09:34.128Z,16.80
2018-07-21T21:12:02.560Z,16.80
2018-07-21T21:14:30.884Z,16.90
2018-07-21T21:19:28.244Z,16.90
2018-07-21T21:21:56.765Z,16.90
2018-07-21T21:24:25.369Z,16.90
2018-07-21T21:26:53.951Z,16.90
2018-07-21T21:29:22.863Z,16.90
2018-07-21T21:31:51.476Z,16.80
2018-07-21T21:34:19.882Z,16.90
2018-07-21T21:36:48.501Z,16.80
2018-07-21T21:39:17.140Z,16.90
2018-07-21T21:41:45.479Z,16.70
2018-07-21T21:44:14.249Z,16.70
2018-07-21T21:46:42.889Z,16.70
2018-07-21T21:49:11.490Z,16.70
2018-07-21T21:51:39.809Z,16.70
2018-07-21T21:54:08.384Z,16.70
2018-07-21T21:56:36.888Z,16.70
2018-07-21T21:59:05.560Z,16.70
2018-07-21T22:01:33.857Z,16.70
2018-07-21T22:04:02.600Z,16.70
2018-07-21T22:06:31.223Z,16.70
2018-07-21T22:08:59.847Z,16.70
2018-07-21T22:11:28.150Z,16.70
2018-07-21T22:13:56.539Z,16.70
2018-07-21T22:16:24.853Z,16.70
2018-07-21T22:18:53.435Z,16.70
2018-07-21T22:21:22.033Z,16.70
2018-07-21T22:23:50.765Z,16.70
2018-07-21T22:26:19.152Z,16.80
2018-07-21T22:28:47.718Z,16.70
2018-07-21T22:31:16.088Z,16.70
2018-07-21T22:33:44.404Z,16.80
2018-07-21T22:36:12.794Z,16.80
2018-07-21T22:38:41.409Z,16.70
2018-07-21T22:41:10.119Z,16.80
2018-07-21T22:43:38.505Z,16.70
2018-07-21T22:46:06.805Z,16.60
2018-07-21T22:48:35.449Z,16.60
2018-07-21T22:51:03.800Z,16.60
2018-07-21T22:53:32.582Z,16.50
2018-07-21T22:56:00.925Z,16.50
2018-07-21T22:58:29.577Z,16.50
2018-07-21T23:00:58.391Z,16.50
2018-07-21T23:03:27.113Z,16.50
2018-07-21T23:05:55.792Z,16.50
2018-07-21T23:08:24.113Z,16.50
2018-07-21T23:10:52.421Z,16.40
2018-07-21T23:13:20.823Z,16.50
2018-07-21T23:15:49.318Z,16.50
2018-07-21T23:18:18.165Z,16.50
2018-07-21T23:20:46.451Z,16.50
2018-07-21T23:23:15.104Z,16.50
2018-07-21T23:25:43.592Z,16.50
2018-07-21T23:30:40.812Z,16.40
2018-07-21T23:33:09.448Z,16.40
2018-07-21T23:35:37.780Z,16.50
2018-07-21T23:38:06.124Z,16.50
2018-07-21T23:40:34.469Z,16.50
2018-07-21T23:43:02.856Z,16.50
2018-07-21T23:45:31.479Z,16.40
2018-07-21T23:47:59.919Z,16.40
2018-07-21T23:50:28.208Z,16.40
2018-07-21T23:52:56.548Z,16.40
2018-07-21T23:55:24.982Z,16.40
2018-07-21T23:57:53.416Z,16.40
